< < Back
Terminal Aerodrome Forecast


Current Version              Previous Versions:   1  2  3  4  5  6  7  8  9  

Terminal Aerodrome Forecast

497
FTAK31 PAJN 262325
TAFAGS
TAF
PAGS 262325Z 2700/2724 23006KT P6SM SCT035 OVC100
     FM270300 VRB03KT P6SM BKN040 BKN120
     FM270800 34005KT P6SM SCT120
      AMD NOT SKED=

Latest METAR

792
SAUS70 KWBC 270600 RRC
MTRAGS
METAR KAGS 270553Z AUTO 00000KT 10SM CLR 20/15 A3012 RMK AO2 SLP196
T02000150 10261 20194 53003


USA.gov is the U.S. government's official web portal to all federal, state and local government web resources and services.